This is the latest recevied weather packets stored in our database for station/object KR4ELZ. If no packets are shown the sender has not sent any weather packets the latest 10 day(s).
| Time | Temp. | Humidity | Pressure | Rain* | Wind** | Luminosity | Snow |
|---|---|---|---|---|---|---|---|
| 1777746889 | 18.33° C | 43% | 1017 hPa | 0 mm | - | 119 W/m² | - |
| 1777746583 | 18.89° C | 41% | 1016.9 hPa | 0 mm | - | 129 W/m² | - |
| 1777746280 | 19.44° C | 42% | 1017 hPa | 0 mm | - | 139 W/m² | - |
| 1777745976 | 19.44° C | 41% | 1017.2 hPa | 0 mm | - | 138 W/m² | - |
| 1777745674 | 18.89° C | 41% | 1017.2 hPa | 0 mm | - | 229 W/m² | - |
| 1777745373 | 19.44° C | 39% | 1017.3 hPa | 0 mm | - | 108 W/m² | - |
| 1777745069 | 18.89° C | 41% | 1017.3 hPa | 0 mm | - | 753 W/m² | - |
| 1777744766 | 18.89° C | 41% | 1017.2 hPa | 0 mm | - | 109 W/m² | - |
| 1777744460 | 18.89° C | 42% | 1017.3 hPa | 0 mm | - | 106 W/m² | - |
| 1777744156 | 18.89° C | 38% | 1017.4 hPa | 0 mm | - | 743 W/m² | - |
| 1777743854 | 20° C | 42% | 1017.2 hPa | 0 mm | - | 117 W/m² | - |
| 1777743550 | 20° C | 41% | 1017.5 hPa | 0 mm | - | 167 W/m² | - |
| 1777743247 | 20.56° C | 41% | 1017.4 hPa | 0 mm | - | 183 W/m² | - |
| 1777742946 | 19.44° C | 39% | 1017.4 hPa | 0 mm | - | 751 W/m² | - |
| 1777742642 | 18.89° C | 42% | 1017.7 hPa | 0 mm | - | 112 W/m² | - |
| 1777742338 | 18.89° C | 42% | 1017.7 hPa | 0 mm | - | 724 W/m² | - |
| 1777742035 | 18.89° C | 44% | 1017.8 hPa | 0 mm | - | 193 W/m² | - |
| 1777741732 | 19.44° C | 43% | 1017.7 hPa | 0 mm | - | 161 W/m² | - |
| 1777741428 | 19.44° C | 41% | 1017.7 hPa | 0 mm | - | 701 W/m² | - |
| 1777741124 | 18.89° C | 41% | 1017.8 hPa | 0 mm | - | 674 W/m² | - |
| 1777740822 | 18.89° C | 43% | 1017.8 hPa | 0 mm | - | 662 W/m² | - |
| 1777740518 | 18.33° C | 42% | 1017.9 hPa | 0 mm | - | 689 W/m² | - |
| 1777740215 | 20° C | 40% | 1018.1 hPa | 0 mm | - | 661 W/m² | - |
| 1777739911 | 18.89° C | 40% | 1017.9 hPa | 0 mm | - | 647 W/m² | - |
| 1777739608 | 18.89° C | 41% | 1018.1 hPa | 0 mm | - | 643 W/m² | - |
* Rain latest hour (hover to see other rain measurements)
** Current wind speed in m/s (hover to see current wind gust speed)